Time;durP1;ratioP1;P1;durP2;ratioP2;P2;SDS_P1;SDS_P2;PMS_P1;PMS_P2;Temp;Humidity;BMP_temperature;BMP_pressure;BME280_temperature;BME280_humidity;BME280_pressure;Samples;Min_cycle;Max_cycle;Signal;HPM_P1;HPM_P2
2021/01/18 00:00:45;;;;;;;12.17;3.30;;;;;;;;;;10481781;28;20237;-78
2021/01/18 00:05:47;;;;;;;19.80;3.80;;;;;;;;;;10481851;28;20209;-79
2021/01/18 00:10:50;;;;;;;13.63;3.30;;;;;;;;;;10481089;28;20210;-79
2021/01/18 00:15:52;;;;;;;17.67;3.57;;;;;;;;;;10472934;28;20206;-78
2021/01/18 00:20:54;;;;;;;11.70;3.30;;;;;;;;;;10485392;28;20257;-78
2021/01/18 00:25:57;;;;;;;13.83;3.03;;;;;;;;;;10482866;28;20632;-78
2021/01/18 00:30:59;;;;;;;16.40;3.30;;;;;;;;;;10486697;28;20581;-78
2021/01/18 00:36:01;;;;;;;12.63;3.20;;;;;;;;;;10478693;28;20229;-78
2021/01/18 00:41:05;;;;;;;18.53;3.40;;;;;;;;;;10496690;28;20230;-78
2021/01/18 00:46:06;;;;;;;14.30;3.40;;;;;;;;;;10473544;28;20202;-78
2021/01/18 00:51:08;;;;;;;11.57;3.40;;;;;;;;;;10479178;28;20210;-78
2021/01/18 00:56:13;;;;;;;10.53;3.10;;;;;;;;;;10485449;28;20266;-78
2021/01/18 01:01:16;;;;;;;14.60;2.83;;;;;;;;;;10497067;28;20229;-79
2021/01/18 01:06:18;;;;;;;10.80;2.93;;;;;;;;;;10490730;28;20226;-78
2021/01/18 01:11:21;;;;;;;11.43;2.63;;;;;;;;;;10487513;28;20232;-79
2021/01/18 01:16:23;;;;;;;12.43;3.33;;;;;;;;;;10492460;28;20217;-79
2021/01/18 01:21:25;;;;;;;15.10;3.70;;;;;;;;;;10499904;28;20244;-79
2021/01/18 01:26:28;;;;;;;11.17;2.70;;;;;;;;;;10497604;28;22387;-78
2021/01/18 01:31:30;;;;;;;11.83;2.80;;;;;;;;;;10495216;28;20926;-79
2021/01/18 01:36:32;;;;;;;9.33;2.83;;;;;;;;;;10487977;28;20493;-79
2021/01/18 01:41:35;;;;;;;12.10;3.10;;;;;;;;;;10496513;28;20786;-79
2021/01/18 01:46:37;;;;;;;12.00;3.30;;;;;;;;;;10497862;28;20220;-79
2021/01/18 01:51:40;;;;;;;12.50;3.37;;;;;;;;;;10500444;28;20214;-80
2021/01/18 01:56:43;;;;;;;10.27;3.40;;;;;;;;;;10503474;28;20221;-78
2021/01/18 02:01:45;;;;;;;10.70;3.67;;;;;;;;;;10478302;28;20222;-77
2021/01/18 02:06:47;;;;;;;13.73;3.90;;;;;;;;;;10484192;28;20206;-78
2021/01/18 02:11:49;;;;;;;16.07;3.80;;;;;;;;;;10482654;28;20248;-78
2021/01/18 02:16:55;;;;;;;11.33;3.83;;;;;;;;;;10476677;28;20206;-78
2021/01/18 02:22:12;;;;;;;18.03;3.97;;;;;;;;;;10487579;28;20248;-77
2021/01/18 02:27:37;;;;;;;13.70;3.87;;;;;;;;;;10479758;28;20213;-77
2021/01/18 02:32:54;;;;;;;14.67;3.77;;;;;;;;;;10418038;28;20217;-78
2021/01/18 02:38:00;;;;;;;17.80;4.00;;;;;;;;;;10492952;28;20735;-79
2021/01/18 02:43:03;;;;;;;11.87;3.43;;;;;;;;;;10480764;28;20301;-78
2021/01/18 02:48:05;;;;;;;9.77;3.33;;;;;;;;;;10480247;28;20929;-79
2021/01/18 02:53:08;;;;;;;13.40;3.60;;;;;;;;;;10487482;28;20205;-78
2021/01/18 02:58:12;;;;;;;13.37;3.43;;;;;;;;;;10484644;28;20234;-78
2021/01/18 03:03:19;;;;;;;17.37;4.57;;;;;;;;;;10482643;28;20202;-78
2021/01/18 03:08:27;;;;;;;11.70;3.50;;;;;;;;;;10493415;28;20221;-79
2021/01/18 03:13:31;;;;;;;13.97;3.70;;;;;;;;;;10481204;28;20202;-79
2021/01/18 03:18:34;;;;;;;10.80;3.70;;;;;;;;;;10481210;28;20238;-78
2021/01/18 03:23:39;;;;;;;14.17;3.77;;;;;;;;;;10481028;28;20229;-78
2021/01/18 03:28:42;;;;;;;13.47;3.30;;;;;;;;;;10484563;28;20588;-78
2021/01/18 03:33:43;;;;;;;13.20;3.10;;;;;;;;;;10477166;28;20304;-79
2021/01/18 03:38:46;;;;;;;15.83;3.43;;;;;;;;;;10483904;28;20224;-79
2021/01/18 03:43:48;;;;;;;15.70;3.40;;;;;;;;;;10474149;28;20221;-77
2021/01/18 03:48:50;;;;;;;16.00;4.17;;;;;;;;;;10481169;28;20206;-77
2021/01/18 03:53:52;;;;;;;15.47;3.60;;;;;;;;;;10479428;28;20237;-77
2021/01/18 03:58:54;;;;;;;17.70;3.33;;;;;;;;;;10484692;28;20230;-79
2021/01/18 04:03:56;;;;;;;10.53;3.40;;;;;;;;;;10482617;28;20214;-78
2021/01/18 04:08:59;;;;;;;13.57;3.57;;;;;;;;;;10483237;28;20592;-78
2021/01/18 04:14:01;;;;;;;15.80;3.70;;;;;;;;;;10476593;28;20683;-78
2021/01/18 04:19:03;;;;;;;15.93;3.80;;;;;;;;;;10483219;28;20238;-80
2021/01/18 04:24:06;;;;;;;14.77;3.83;;;;;;;;;;10482384;28;20637;-78
2021/01/18 04:29:08;;;;;;;10.70;3.50;;;;;;;;;;10476578;28;20544;-78
2021/01/18 04:34:09;;;;;;;14.73;3.80;;;;;;;;;;10494173;28;20248;-78
2021/01/18 04:39:12;;;;;;;13.13;3.80;;;;;;;;;;10494805;28;20240;-79
2021/01/18 04:44:16;;;;;;;14.20;3.67;;;;;;;;;;10500498;28;20202;-78
2021/01/18 04:49:19;;;;;;;14.83;4.00;;;;;;;;;;10479395;28;20198;-78
2021/01/18 04:54:23;;;;;;;15.60;3.73;;;;;;;;;;10488532;28;20686;-81
2021/01/18 04:59:27;;;;;;;16.50;4.03;;;;;;;;;;10487843;28;20228;-82
2021/01/18 05:04:33;;;;;;;19.47;4.10;;;;;;;;;;10503661;28;20218;-82
2021/01/18 05:09:42;;;;;;;17.00;4.37;;;;;;;;;;10490034;28;20228;-82
2021/01/18 05:14:43;;;;;;;16.87;4.47;;;;;;;;;;10483619;28;20479;-82
2021/01/18 05:19:46;;;;;;;18.83;4.40;;;;;;;;;;10495917;28;20237;-81
2021/01/18 05:24:48;;;;;;;16.17;4.33;;;;;;;;;;10496320;28;20217;-82
2021/01/18 05:29:55;;;;;;;17.67;4.20;;;;;;;;;;10484091;28;20262;-82
2021/01/18 05:35:11;;;;;;;14.47;4.17;;;;;;;;;;10492403;28;20221;-82
2021/01/18 05:40:20;;;;;;;18.30;4.37;;;;;;;;;;10482012;28;20236;-81
2021/01/18 05:45:26;;;;;;;14.43;3.83;;;;;;;;;;10494304;28;20805;-79
2021/01/18 05:50:28;;;;;;;19.17;4.07;;;;;;;;;;10485730;28;20217;-83
2021/01/18 05:55:31;;;;;;;23.83;5.10;;;;;;;;;;10497050;28;20221;-84
2021/01/18 06:00:33;;;;;;;14.43;4.40;;;;;;;;;;10487395;28;20230;-85
2021/01/18 06:05:36;;;;;;;16.43;4.17;;;;;;;;;;10482213;28;20206;-88
2021/01/18 06:10:39;;;;;;;15.53;5.13;;;;;;;;;;10491378;28;20213;-85
2021/01/18 06:15:41;;;;;;;15.83;5.17;;;;;;;;;;10496958;28;21255;-84
2021/01/18 06:20:43;;;;;;;17.60;4.87;;;;;;;;;;10515351;28;20665;-89
2021/01/18 06:25:54;;;;;;;20.13;4.57;;;;;;;;;;10476753;28;20222;-93
2021/01/18 06:30:57;;;;;;;22.87;5.07;;;;;;;;;;10507714;28;20225;-85
2021/01/18 06:36:05;;;;;;;17.70;4.50;;;;;;;;;;10485924;28;20214;-85
2021/01/18 06:41:08;;;;;;;15.87;4.67;;;;;;;;;;10481235;28;20237;-86
2021/01/18 06:46:16;;;;;;;20.30;5.10;;;;;;;;;;10477496;28;20671;-86
2021/01/18 06:51:19;;;;;;;19.60;5.40;;;;;;;;;;10489868;28;20214;-87
2021/01/18 06:56:29;;;;;;;18.27;5.13;;;;;;;;;;10488268;28;20211;-85
2021/01/18 07:01:32;;;;;;;15.80;5.13;;;;;;;;;;10491479;28;20599;-86
2021/01/18 07:06:35;;;;;;;19.53;4.73;;;;;;;;;;10488869;28;20204;-87
2021/01/18 07:11:38;;;;;;;13.50;4.67;;;;;;;;;;10492546;28;20217;-86
2021/01/18 07:16:41;;;;;;;16.80;4.63;;;;;;;;;;10486697;28;20236;-87
2021/01/18 07:21:55;;;;;;;24.23;5.40;;;;;;;;;;10498835;28;20266;-86
2021/01/18 07:27:04;;;;;;;22.70;4.90;;;;;;;;;;10502387;28;20205;-85
2021/01/18 07:32:08;;;;;;;20.23;5.53;;;;;;;;;;10497657;28;20204;-85
2021/01/18 07:37:10;;;;;;;15.83;4.90;;;;;;;;;;10484021;28;20214;-85
2021/01/18 07:42:31;;;;;;;16.57;4.60;;;;;;;;;;10491358;28;20230;-87
2021/01/18 07:47:53;;;;;;;16.97;4.53;;;;;;;;;;10490784;28;20197;-87
2021/01/18 07:52:57;;;;;;;15.10;5.00;;;;;;;;;;10491231;28;20214;-86
2021/01/18 07:58:15;;;;;;;17.40;4.73;;;;;;;;;;10481828;28;20329;-86
2021/01/18 08:03:27;;;;;;;17.60;4.57;;;;;;;;;;10479101;28;20298;-87
2021/01/18 08:08:30;;;;;;;18.23;5.10;;;;;;;;;;10481162;28;20205;-87
2021/01/18 08:13:33;;;;;;;21.50;5.07;;;;;;;;;;10484990;28;20339;-84
2021/01/18 08:18:35;;;;;;;25.83;5.00;;;;;;;;;;10486524;28;20209;-85
2021/01/18 08:23:40;;;;;;;16.63;5.23;;;;;;;;;;10490095;28;20720;-86
2021/01/18 08:28:47;;;;;;;17.40;5.03;;;;;;;;;;10479479;28;20654;-85
2021/01/18 08:34:09;;;;;;;16.17;4.70;;;;;;;;;;10495559;28;20205;-87
2021/01/18 08:39:12;;;;;;;19.67;5.00;;;;;;;;;;10484198;28;20587;-86
2021/01/18 08:44:15;;;;;;;19.13;5.10;;;;;;;;;;10501089;28;20220;-86
2021/01/18 08:49:27;;;;;;;18.20;4.80;;;;;;;;;;10489619;28;20198;-86
2021/01/18 08:54:30;;;;;;;20.00;5.10;;;;;;;;;;10496212;28;20580;-86
2021/01/18 08:59:32;;;;;;;18.30;4.80;;;;;;;;;;10485061;28;20660;-86
2021/01/18 09:04:34;;;;;;;21.93;4.90;;;;;;;;;;10488312;28;20213;-88
2021/01/18 09:09:39;;;;;;;21.43;4.97;;;;;;;;;;10495119;28;20224;-86
2021/01/18 09:14:41;;;;;;;22.47;4.70;;;;;;;;;;10490557;28;20206;-86
2021/01/18 09:19:53;;;;;;;17.63;4.93;;;;;;;;;;10476900;28;20241;-87
2021/01/18 09:24:56;;;;;;;17.53;4.43;;;;;;;;;;10495664;28;21289;-87
2021/01/18 09:30:00;;;;;;;16.73;4.67;;;;;;;;;;10481141;28;20659;-85
2021/01/18 09:35:05;;;;;;;19.30;4.90;;;;;;;;;;10505123;28;20206;-84
2021/01/18 09:40:08;;;;;;;19.83;5.00;;;;;;;;;;10495489;28;20240;-85
2021/01/18 09:45:10;;;;;;;13.47;4.53;;;;;;;;;;10500248;28;20212;-86
2021/01/18 09:50:15;;;;;;;14.60;4.20;;;;;;;;;;10497724;28;20298;-88
2021/01/18 09:55:20;;;;;;;18.50;4.50;;;;;;;;;;10489159;28;20718;-88
2021/01/18 10:00:22;;;;;;;12.33;4.50;;;;;;;;;;10497078;28;20241;-85
2021/01/18 10:05:28;;;;;;;12.50;4.10;;;;;;;;;;10493345;28;20216;-86
2021/01/18 10:10:39;;;;;;;17.57;4.23;;;;;;;;;;10499722;28;20309;-87
2021/01/18 10:15:41;;;;;;;20.63;4.07;;;;;;;;;;10493335;28;20309;-86
2021/01/18 10:20:52;;;;;;;17.80;4.43;;;;;;;;;;10504277;28;20237;-87
2021/01/18 10:25:54;;;;;;;14.47;3.97;;;;;;;;;;10477411;28;20218;-86
2021/01/18 10:31:00;;;;;;;18.53;4.30;;;;;;;;;;10489262;28;20211;-86
2021/01/18 10:36:03;;;;;;;17.33;4.63;;;;;;;;;;10497389;28;20738;-85
2021/01/18 10:41:05;;;;;;;12.73;4.00;;;;;;;;;;10504999;28;20239;-85
2021/01/18 10:46:19;;;;;;;15.80;4.00;;;;;;;;;;10484804;28;20205;-86
2021/01/18 10:51:25;;;;;;;14.20;4.23;;;;;;;;;;10509782;28;20620;-84
2021/01/18 10:56:31;;;;;;;15.30;3.90;;;;;;;;;;10499828;28;20209;-86
2021/01/18 11:01:33;;;;;;;11.37;3.83;;;;;;;;;;10495737;28;20222;-87
2021/01/18 11:06:36;;;;;;;15.37;4.30;;;;;;;;;;10509406;28;20210;-85
2021/01/18 11:11:38;;;;;;;22.93;4.37;;;;;;;;;;10502031;28;20206;-85
2021/01/18 11:16:40;;;;;;;23.73;4.73;;;;;;;;;;10490346;28;20557;-85
2021/01/18 11:21:45;;;;;;;16.53;4.20;;;;;;;;;;10491345;28;20238;-86
2021/01/18 11:26:49;;;;;;;15.43;4.33;;;;;;;;;;10485752;28;20218;-86
2021/01/18 11:31:52;;;;;;;14.73;4.83;;;;;;;;;;10496920;28;20639;-87
2021/01/18 11:36:57;;;;;;;16.30;4.17;;;;;;;;;;10505368;28;20296;-86
2021/01/18 11:42:00;;;;;;;17.20;4.13;;;;;;;;;;10501945;28;20225;-87
2021/01/18 11:47:02;;;;;;;21.27;4.27;;;;;;;;;;10489498;28;20213;-87
2021/01/18 11:52:05;;;;;;;12.73;3.43;;;;;;;;;;10490464;28;20206;-87
2021/01/18 11:57:07;;;;;;;18.57;4.50;;;;;;;;;;10493626;28;20206;-87
2021/01/18 12:02:09;;;;;;;14.63;4.00;;;;;;;;;;10485553;28;20230;-85
2021/01/18 12:07:13;;;;;;;14.67;4.23;;;;;;;;;;10496871;28;20611;-86
2021/01/18 12:12:15;;;;;;;13.83;4.13;;;;;;;;;;10498901;28;20680;-87
2021/01/18 12:17:16;;;;;;;14.50;3.67;;;;;;;;;;10493337;28;20255;-84
2021/01/18 12:22:20;;;;;;;16.00;3.80;;;;;;;;;;10495260;28;20886;-86
2021/01/18 12:27:22;;;;;;;11.73;3.50;;;;;;;;;;10489502;28;20231;-85
2021/01/18 12:32:24;;;;;;;15.30;3.83;;;;;;;;;;10511699;28;20212;-85
2021/01/18 12:37:30;;;;;;;15.97;3.83;;;;;;;;;;10512631;28;20207;-86
2021/01/18 12:42:31;;;;;;;16.53;3.70;;;;;;;;;;10512105;28;20230;-85
2021/01/18 12:47:34;;;;;;;19.23;4.10;;;;;;;;;;10510662;28;20202;-86
2021/01/18 12:52:41;;;;;;;18.27;3.63;;;;;;;;;;10498192;28;20222;-86
2021/01/18 12:57:43;;;;;;;17.97;3.73;;;;;;;;;;10505751;28;20201;-86
2021/01/18 13:02:45;;;;;;;14.03;3.13;;;;;;;;;;10510026;28;20225;-86
2021/01/18 13:07:49;;;;;;;14.53;3.20;;;;;;;;;;10501803;28;20220;-85
2021/01/18 13:12:51;;;;;;;19.47;3.43;;;;;;;;;;10495263;28;20677;-88
2021/01/18 13:17:53;;;;;;;11.90;3.00;;;;;;;;;;10489121;28;20217;-87
2021/01/18 13:22:57;;;;;;;11.57;3.00;;;;;;;;;;10492124;28;20229;-86
2021/01/18 13:27:59;;;;;;;12.73;3.13;;;;;;;;;;10490525;28;20656;-88
2021/01/18 13:33:01;;;;;;;17.70;3.77;;;;;;;;;;10491806;28;20233;-87
2021/01/18 13:38:04;;;;;;;10.90;3.17;;;;;;;;;;10511605;28;20275;-87
2021/01/18 13:43:06;;;;;;;16.70;3.80;;;;;;;;;;10496423;28;20229;-85
2021/01/18 13:48:09;;;;;;;13.63;2.80;;;;;;;;;;10503416;28;20228;-85
2021/01/18 13:53:12;;;;;;;16.90;3.40;;;;;;;;;;10500456;28;20213;-85
2021/01/18 13:58:14;;;;;;;12.33;2.80;;;;;;;;;;10496366;28;20203;-85
2021/01/18 14:03:16;;;;;;;12.57;3.20;;;;;;;;;;10498020;28;20234;-87
2021/01/18 14:08:20;;;;;;;11.10;2.77;;;;;;;;;;10510879;28;20222;-86
2021/01/18 14:13:22;;;;;;;13.30;2.60;;;;;;;;;;10506998;28;20683;-87
2021/01/18 14:18:24;;;;;;;16.17;3.33;;;;;;;;;;10492115;28;20206;-88
2021/01/18 14:23:27;;;;;;;11.07;2.50;;;;;;;;;;10497446;28;20687;-89
2021/01/18 14:28:29;;;;;;;11.97;2.50;;;;;;;;;;10509617;28;20288;-89
2021/01/18 14:33:31;;;;;;;14.47;2.40;;;;;;;;;;10492196;28;20214;-87
2021/01/18 14:38:33;;;;;;;9.67;2.40;;;;;;;;;;10495594;28;20202;-87
2021/01/18 14:43:35;;;;;;;10.67;2.40;;;;;;;;;;10491448;28;20794;-87
2021/01/18 14:48:38;;;;;;;11.03;2.57;;;;;;;;;;10491425;28;20251;-87
2021/01/18 14:53:44;;;;;;;8.37;2.53;;;;;;;;;;10494778;28;20225;-86
2021/01/18 14:58:46;;;;;;;11.20;2.93;;;;;;;;;;10495809;28;20217;-87
2021/01/18 15:03:49;;;;;;;8.37;2.27;;;;;;;;;;10489066;28;20234;-89
2021/01/18 15:08:56;;;;;;;13.90;2.80;;;;;;;;;;10486162;28;20613;-88
2021/01/18 15:14:00;;;;;;;15.93;3.07;;;;;;;;;;10482342;28;20217;-87
2021/01/18 15:19:02;;;;;;;14.07;2.77;;;;;;;;;;10497790;28;20202;-86
2021/01/18 15:24:05;;;;;;;13.33;2.53;;;;;;;;;;10484600;28;20234;-86
2021/01/18 15:29:07;;;;;;;11.27;2.90;;;;;;;;;;10489329;28;20217;-88
2021/01/18 15:34:09;;;;;;;11.43;2.43;;;;;;;;;;10495922;28;23581;-89
2021/01/18 15:39:13;;;;;;;10.67;2.30;;;;;;;;;;10483551;28;20224;-88
2021/01/18 15:44:16;;;;;;;10.20;2.40;;;;;;;;;;10498460;28;20206;-88
2021/01/18 15:49:18;;;;;;;7.70;2.07;;;;;;;;;;10501075;28;20742;-88
2021/01/18 15:54:21;;;;;;;8.37;2.20;;;;;;;;;;10491821;28;20214;-88
2021/01/18 15:59:23;;;;;;;10.13;2.50;;;;;;;;;;10494197;28;20209;-88
2021/01/18 16:04:25;;;;;;;9.77;2.50;;;;;;;;;;10492002;28;20221;-87
2021/01/18 16:09:28;;;;;;;12.67;2.80;;;;;;;;;;10482953;28;20295;-89
2021/01/18 16:14:31;;;;;;;10.97;2.20;;;;;;;;;;10484567;28;20797;-87
2021/01/18 16:19:33;;;;;;;6.23;2.17;;;;;;;;;;10486101;28;20235;-89
2021/01/18 16:24:35;;;;;;;7.70;2.30;;;;;;;;;;10484302;28;20260;-87
2021/01/18 16:29:38;;;;;;;9.30;3.30;;;;;;;;;;10479246;28;20701;-88
2021/01/18 16:34:41;;;;;;;14.37;2.60;;;;;;;;;;10491475;28;20230;-88
2021/01/18 16:39:44;;;;;;;9.80;2.77;;;;;;;;;;10474197;28;20704;-85
2021/01/18 16:44:46;;;;;;;13.03;3.40;;;;;;;;;;10494428;28;20214;-88
2021/01/18 16:49:48;;;;;;;12.83;2.90;;;;;;;;;;10484432;28;20217;-87
2021/01/18 16:54:51;;;;;;;11.13;2.90;;;;;;;;;;10480576;28;20205;-87
2021/01/18 16:59:53;;;;;;;13.60;2.87;;;;;;;;;;10482150;28;20225;-88
2021/01/18 17:04:55;;;;;;;13.33;3.47;;;;;;;;;;10485420;28;20221;-87
2021/01/18 17:09:58;;;;;;;13.83;3.27;;;;;;;;;;10489985;28;20216;-88
2021/01/18 17:15:00;;;;;;;11.20;3.20;;;;;;;;;;10487497;28;20415;-83
2021/01/18 17:20:02;;;;;;;10.83;3.00;;;;;;;;;;10498526;28;20214;-88
2021/01/18 17:25:05;;;;;;;13.57;3.10;;;;;;;;;;10476459;28;20695;-86
2021/01/18 17:30:08;;;;;;;9.60;2.53;;;;;;;;;;10486779;28;20220;-82
2021/01/18 17:35:10;;;;;;;7.70;2.40;;;;;;;;;;10475977;28;20228;-80
2021/01/18 17:40:13;;;;;;;11.37;2.47;;;;;;;;;;10487651;28;20234;-84
2021/01/18 17:45:16;;;;;;;10.80;2.80;;;;;;;;;;10490576;28;20998;-83
2021/01/18 17:50:19;;;;;;;13.53;2.73;;;;;;;;;;10482499;28;22210;-84
2021/01/18 17:55:22;;;;;;;9.30;3.00;;;;;;;;;;10484428;28;20236;-83
2021/01/18 18:00:24;;;;;;;15.63;3.97;;;;;;;;;;10471671;28;20224;-81
2021/01/18 18:05:26;;;;;;;17.07;4.13;;;;;;;;;;10481106;28;20209;-84
2021/01/18 18:10:29;;;;;;;13.37;4.00;;;;;;;;;;10478322;28;20222;-83
2021/01/18 18:15:31;;;;;;;14.37;3.70;;;;;;;;;;10477903;28;20214;-82
2021/01/18 18:20:32;;;;;;;12.40;4.10;;;;;;;;;;10468465;28;20758;-80
2021/01/18 18:25:35;;;;;;;22.20;4.47;;;;;;;;;;10525554;28;20625;-82
2021/01/18 18:30:37;;;;;;;11.73;4.40;;;;;;;;;;10490389;28;20224;-81
2021/01/18 18:35:39;;;;;;;19.57;5.07;;;;;;;;;;10478222;28;20316;-83
2021/01/18 18:40:42;;;;;;;16.37;5.57;;;;;;;;;;10477131;28;20634;-82
2021/01/18 18:45:44;;;;;;;12.70;4.83;;;;;;;;;;10467784;28;20213;-80
2021/01/18 18:50:46;;;;;;;15.43;5.60;;;;;;;;;;10475052;28;20333;-80
2021/01/18 18:55:49;;;;;;;12.30;5.20;;;;;;;;;;10480744;28;20216;-80
2021/01/18 19:00:51;;;;;;;13.77;5.43;;;;;;;;;;10474420;28;20238;-79
2021/01/18 19:05:53;;;;;;;15.17;5.17;;;;;;;;;;10482162;28;20201;-82
2021/01/18 19:10:56;;;;;;;12.50;5.20;;;;;;;;;;10476165;28;21197;-82
2021/01/18 19:15:58;;;;;;;17.63;5.77;;;;;;;;;;10478407;28;20209;-81
2021/01/18 19:21:00;;;;;;;13.57;5.43;;;;;;;;;;10487318;28;20329;-84
2021/01/18 19:26:04;;;;;;;16.67;6.10;;;;;;;;;;10478678;28;20233;-83
2021/01/18 19:31:05;;;;;;;13.60;5.20;;;;;;;;;;10478801;28;20212;-84
2021/01/18 19:36:07;;;;;;;11.23;5.37;;;;;;;;;;10470757;28;20210;-83
2021/01/18 19:41:11;;;;;;;12.00;5.00;;;;;;;;;;10481107;28;20244;-82
2021/01/18 19:46:12;;;;;;;11.90;5.10;;;;;;;;;;10486836;28;20205;-83
2021/01/18 19:51:14;;;;;;;11.63;5.13;;;;;;;;;;10492339;28;20552;-83
2021/01/18 19:56:17;;;;;;;12.50;5.10;;;;;;;;;;10478308;28;20271;-82
2021/01/18 20:01:20;;;;;;;11.57;5.70;;;;;;;;;;10466899;28;20427;-82
2021/01/18 20:06:24;;;;;;;12.60;5.83;;;;;;;;;;10470266;28;20201;-82
2021/01/18 20:11:26;;;;;;;15.17;5.87;;;;;;;;;;10474341;28;21005;-83
2021/01/18 20:16:29;;;;;;;12.90;5.63;;;;;;;;;;10478945;28;20217;-82
2021/01/18 20:21:35;;;;;;;15.67;5.90;;;;;;;;;;10483833;28;20278;-83
2021/01/18 23:10:27;;;;;;;14.77;8.00;;;;;;;;;;10449888;28;20207;-79
2021/01/18 23:15:30;;;;;;;13.43;7.93;;;;;;;;;;10449807;28;20713;-79
2021/01/18 23:20:32;;;;;;;13.53;6.90;;;;;;;;;;10445877;28;20234;-79
2021/01/18 23:25:35;;;;;;;11.40;6.50;;;;;;;;;;10451884;28;20214;-80
2021/01/18 23:30:37;;;;;;;15.83;6.67;;;;;;;;;;10437544;28;20215;-79
2021/01/18 23:35:39;;;;;;;11.63;6.13;;;;;;;;;;10443220;28;20567;-79
2021/01/18 23:40:42;;;;;;;13.83;6.30;;;;;;;;;;10444947;28;20263;-79
2021/01/18 23:45:44;;;;;;;17.40;6.37;;;;;;;;;;10453718;28;20594;-79
2021/01/18 23:50:45;;;;;;;11.47;5.73;;;;;;;;;;10442368;28;20215;-80
2021/01/18 23:55:48;;;;;;;12.53;5.23;;;;;;;;;;10449560;28;20214;-78
